FEGG weather

Gamboula Airport
Gamboula, Mambéré-Kadéï, Central African Republic

Public forecast

Using degrees Celsius for public forecast. Weather courtesy of forecast.io.

METAR (pilot weather report)

Report is more than 6 hours old.

Closest report is Berbérati Airport, 38.5 nm (71.3 km) E. Retrieved 2019/02/16 10:00 UTC (14 hours ago):

FEFT 161000Z 04016KT 0500 HZ NSC 25/08 Q1013

TAF (pilot weather forecast)

Forecast is more than 12 hours old.

Closest forecast is Bertoua Airport, 88.8 nm (164.5 km) WNW. Retrieved 2018/07/18 08:00 UTC (7 months ago):

TAF FKKO 180730Z 1808/1818 VRB05KT 4000 BR OVC004 BKN008 BECMG 1808/1809 9999 NSW BKN012 TEMPO 1213/1218 4000 TSRA BKN009 SCT023CB